Latest Weather Observations for Thredbo Top Station

IDN60901

Issued at 6:05 pm EST Wednesday 1 October 2014 (issued every 10 minutes, with the page automatically refreshed every 10 minutes)

About weather observations | Map of Canberra area stations | Latest observations for Canberra area | Other Formats
Station Details ID: 071032 Name: THREDBO AWS Lat: -36.49 Lon: 148.29 Height: 1957.0 m
Data from the previous 72 hours. | See also: Recent months at Thredbo Top Station
Date/Time
EST
Tmp

°C
App
Tmp
°C
Dew
Point
°C
Rel
Hum
%
Delta-T

°C
Wind Press
QNH
hPa
Press
MSL
hPa
Rain
since
9 am
mm
Dir
 
Spd
km/h
Gust
km/h
Spd
kts
Gust
kts
01/06:00pm -1.1 -8.0 -2.7 89 0.5 W 24 32 13 17 1020.4 1021.7 0.0
01/05:30pm -0.8 -8.1 -3.0 85 0.8 W 26 33 14 18 1019.8 1021.1 0.0
01/05:00pm -0.2 -6.2 -3.2 80 1.1 W 19 26 10 14 1019.6 1020.9 0.0
01/04:30pm 1.1 -4.9 -3.4 72 1.7 W 19 26 10 14 1019.2 1020.5 0.0
01/04:00pm 1.5 -4.9 -5.2 61 2.4 SW 20 32 11 17 1018.9 1020.2 0.0
01/03:30pm 1.2 -6.0 -5.7 60 2.5 SSW 24 35 13 19 1019.1 1020.4 0.0
01/03:00pm 1.0 -7.0 -6.1 59 2.5 SSW 28 39 15 21 1019.4 1020.6 0.0
01/02:30pm 1.0 -6.7 -6.8 56 2.7 S 26 39 14 21 1018.8 1020.1 0.0
01/02:09pm 0.6 -7.9 -6.9 57 2.5 S 30 54 16 29 1019.1 1020.4 0.0
01/02:00pm 0.8 -6.9 -6.3 59 2.5 SSW 26 35 14 19 1018.8 1020.1 0.0
01/01:42pm 0.6 -8.2 -5.8 62 2.2 SSW 32 52 17 28 1018.9 1020.2 0.0
01/01:30pm -0.1 -8.1 -6.1 64 2.0 S 28 39 15 21 1019.0 1020.3 0.0
01/01:00pm -0.4 -7.3 -5.8 67 1.8 S 22 33 12 18 1019.2 1020.5 0.0
01/12:30pm -0.6 -8.7 -6.3 65 1.9 S 28 46 15 25 1019.2 1020.5 0.0
01/12:24pm -1.2 -9.3 -6.3 68 1.6 S 28 46 15 25 1019.2 1020.5 0.0
01/12:00pm -0.9 -8.1 -5.5 71 1.5 S 24 39 13 21 1018.9 1020.2 0.0
01/11:30am -1.5 -9.4 -5.2 76 1.2 S 28 39 15 21 1018.9 1020.2 0.0
01/11:00am -2.6 -10.6 -5.9 78 1.0 S 28 41 15 22 1018.9 1020.2 0.0
01/10:30am -2.2 -9.8 -5.8 76 1.1 S 26 35 14 19 1018.8 1020.1 0.0
01/10:00am -3.0 -11.5 -6.8 75 1.1 S 30 43 16 23 1018.6 1019.8 0.0
01/09:30am -3.6 -13.1 -7.0 77 0.9 SSW 35 48 19 26 1018.0 1021.1 0.0
01/09:00am -4.2 -13.7 -7.0 81 0.7 SSW 35 44 19 24 1017.6 1020.8 2.8
01/08:30am -4.5 -14.0 -7.1 82 0.6 SSW 35 52 19 28 1017.1 1020.2 2.8
01/08:00am -4.5 -12.6 -6.8 84 0.5 SSW 28 41 15 22 1016.5 1019.6 2.8
01/07:32am -5.0 -13.1 -7.0 86 0.4 SSW 28 46 15 25 1016.2 1019.3 2.8
01/07:30am -4.9 -13.8 -6.7 87 0.4 SSW 32 46 17 25 1016.0 1019.1 2.8
01/07:00am -5.5 -14.4 -7.3 87 0.3 S 32 57 17 31 1015.8 1018.9 2.8
01/06:31am -5.7 -15.6 -7.5 87 0.3 SSW 37 56 20 30 1015.2 1018.3 2.8
01/06:30am -5.8 -15.3 -7.5 88 0.3 SSW 35 52 19 28 1015.2 1018.3 2.8
01/06:03am -5.9 -14.1 -7.4 89 0.2 SSW 28 48 15 26 1014.8 1017.8 2.8
01/06:00am -5.9 -13.7 -7.3 90 0.2 SW 26 37 14 20 1014.7 1017.7 2.8
01/05:54am -5.8 -14.0 -7.3 89 0.2 SW 28 46 15 25 1014.4 1017.5 2.8
01/05:30am -5.9 -14.8 -7.3 90 0.2 SW 32 43 17 23 1013.8 1016.8 2.8
01/05:00am -5.8 -14.3 -7.3 89 0.2 WSW 30 48 16 26 1013.2 1016.2 2.8
01/04:30am -5.7 -14.6 -7.5 87 0.3 WSW 32 50 17 27 1012.6 1015.6 2.8
01/04:00am -5.7 -13.9 -7.5 87 0.3 WSW 28 52 15 28 1012.0 1015.0 2.8
01/03:45am -5.6 -14.2 -7.7 85 0.4 WSW 30 50 16 27 1011.8 1014.8 2.8
01/03:30am -5.5 -14.1 -7.8 84 0.5 WSW 30 44 16 24 1011.7 1014.6 2.8
01/03:12am -5.4 -13.7 -8.5 79 0.7 WSW 28 48 15 26 1011.6 1014.5 2.8
01/03:00am -5.2 -14.4 -8.4 78 0.8 WSW 33 48 18 26 1011.4 1014.3 2.8
01/02:33am -5.2 -13.9 -8.9 75 0.9 WSW 30 57 16 31 1011.1 1014.1 2.8
01/02:30am -5.2 -14.2 -8.8 76 0.9 WSW 32 46 17 25 1011.1 1014.1 2.8
01/02:08am -5.0 -14.2 -8.6 76 0.9 WSW 33 54 18 29 1010.9 1013.8 2.8
01/02:00am -4.9 -13.9 -8.3 77 0.8 W 32 44 17 24 1011.0 1013.9 2.8
01/01:30am -4.4 -13.4 -8.5 73 1.1 WSW 32 52 17 28 1010.9 1013.8 2.8
01/01:00am -3.9 -13.5 -8.7 69 1.3 WSW 35 56 19 30 1010.9 1013.8 2.8
01/12:57am -3.7 -13.7 -8.7 68 1.4 WSW 37 56 20 30 1010.9 1013.8 2.8
01/12:30am -3.4 -13.7 -7.9 71 1.3 WSW 39 52 21 28 1010.8 1013.7 2.8
01/12:04am -2.9 -13.5 -7.4 71 1.3 SW 41 59 22 32 1010.7 1013.6 2.8
01/12:00am -2.8 -13.0 -7.3 71 1.3 SW 39 56 21 30 1010.7 1013.6 2.8
 
Date/Time
EST
Tmp

°C
App
Tmp
°C
Dew
Point
°C
Rel
Hum
%
Delta-T

°C
Wind Press
QNH
hPa
Press
MSL
hPa
Rain
since
9 am
mm
Dir
 
Spd
km/h
Gust
km/h
Spd
kts
Gust
kts
30/11:30pm -1.7 -11.9 -6.4 70 1.5 SW 39 61 21 33 1009.5 1012.4 2.8
30/11:00pm -1.0 -12.4 -5.6 71 1.5 SW 46 70 25 38 1009.5 1012.4 2.8
30/10:30pm 0.3 -10.1 -0.1 97 0.2 WSW 44 69 24 37 1009.3 1012.2 2.8
30/10:00pm 0.7 -11.2 0.0 95 0.3 WSW 52 80 28 43 1009.2 1012.0 2.8
30/09:30pm 2.4 -9.2 1.7 95 0.3 W 52 80 28 43 1008.6 1011.4 2.4
30/09:12pm 3.2 -6.7 1.7 90 0.6 W 43 76 23 41 1008.2 1011.0 2.0
30/09:09pm 3.3 -6.6 1.8 90 0.6 W 43 56 23 30 1008.3 1011.1 2.0
30/09:00pm 3.6 -10.8 1.8 88 0.8 W 67 95 36 51 1008.4 1011.2 2.0
30/08:58pm 3.6 -11.3 1.5 86 0.9 W 69 95 37 51 1008.5 1011.3 2.0
30/08:30pm 4.1 -6.7 2.1 87 0.9 W 48 80 26 43 1008.4 1011.2 1.8
30/08:10pm 4.1 -8.3 2.6 90 0.7 W 57 78 31 42 1009.0 1011.8 1.8
30/08:00pm 4.1 -4.8 2.8 91 0.6 W 39 76 21 41 1008.7 1011.6 1.8
30/07:45pm 4.1 -6.3 2.3 88 0.8 W 46 87 25 47 1009.0 1011.8 1.8
30/07:30pm 4.0 -4.3 2.0 87 0.9 WSW 35 56 19 30 1009.0 1011.8 1.6
30/07:13pm 4.3 -4.0 2.3 87 0.9 W 35 54 19 29 1008.5 1011.3 0.8
30/07:12pm 4.3 -3.4 2.3 87 0.9 W 32 48 17 26 1008.6 1011.4 0.8
30/07:00pm 3.9 -8.4 1.8 86 0.9 W 56 83 30 45 1009.3 1012.2 0.8
30/06:30pm 5.2 -7.3 1.1 75 1.8 WNW 56 78 30 42 1009.0 1011.8 0.0
30/06:00pm 5.1 -7.3 1.4 77 1.6 WNW 56 82 30 44 1009.3 1012.2 0.0
30/05:37pm 5.6 -8.6 1.2 73 1.9 WNW 65 83 35 45 1009.5 1012.4 0.0
30/05:35pm 5.4 -8.8 0.8 72 2.0 WNW 65 78 35 42 1009.5 1012.4 0.0
30/05:30pm 5.2 -5.0 1.0 74 1.8 WNW 44 72 24 39 1009.6 1012.5 0.0
30/05:00pm 5.4 -5.2 0.8 72 2.0 W 46 74 25 40 1009.9 1012.7 0.0
30/04:35pm 5.6 -5.4 0.6 70 2.1 W 48 72 26 39 1010.0 1012.9 0.0
30/04:30pm 5.7 -4.9 0.5 69 2.2 W 46 63 25 34 1009.9 1012.7 0.0
30/04:01pm 5.9 -6.9 -0.2 65 2.6 WNW 57 76 31 41 1010.0 1012.9 0.0
30/04:00pm 6.0 -6.7 -0.3 64 2.6 WNW 56 72 30 39 1009.9 1012.7 0.0
30/03:36pm 6.2 -6.5 -0.5 62 2.8 W 56 76 30 41 1010.1 1013.0 0.0
30/03:33pm 6.4 -5.5 -0.6 61 2.9 W 52 69 28 37 1010.2 1013.1 0.0
30/03:30pm 6.2 -9.6 -0.7 61 2.9 WNW 72 98 39 53 1010.4 1013.3 0.0
30/03:00pm 6.6 -9.0 0.1 63 2.8 WNW 72 91 39 49 1010.3 1013.2 0.0
30/02:30pm 6.3 -10.0 1.0 69 2.3 WNW 76 100 41 54 1010.6 1013.5 0.0
30/02:00pm 6.5 -10.2 0.8 67 2.5 WNW 78 100 42 54 1010.3 1013.2 0.0
30/01:34pm 5.9 -10.7 1.6 74 1.9 WNW 78 96 42 52 1011.1 1014.1 0.0
30/01:30pm 6.3 -10.7 1.4 71 2.1 WNW 80 96 43 52 1011.0 1013.9 0.0
30/01:00pm 5.9 -9.4 2.4 78 1.6 WNW 72 91 39 49 1011.9 1014.9 0.0
30/12:30pm 5.8 -9.3 1.5 74 1.9 WNW 70 96 38 52 1012.4 1015.4 0.0
30/12:14pm 5.3 -7.3 1.6 77 1.6 W 57 83 31 45 1012.3 1015.2 0.0
30/12:12pm 5.3 -5.9 1.6 77 1.6 W 50 67 27 36 1012.3 1015.2 0.0
30/12:00pm 5.9 -9.5 1.4 73 2.0 WNW 72 93 39 50 1012.4 1015.4 0.0
30/11:30am 5.7 -9.3 0.9 71 2.1 WNW 69 87 37 47 1012.6 1015.6 0.0
30/11:14am 5.6 -10.4 0.6 70 2.1 WNW 74 93 40 50 1013.0 1015.9 0.0
30/11:00am 5.7 -10.7 0.3 68 2.3 WNW 76 93 41 50 1013.0 1015.9 0.0
30/10:30am 5.4 -9.9 0.2 69 2.2 WNW 70 91 38 49 1013.2 1016.2 0.0
30/10:15am 5.4 -9.3 0.0 68 2.3 WNW 67 87 36 47 1013.4 1016.4 0.0
30/10:00am 5.2 -9.4 0.8 73 1.9 WNW 67 78 36 42 1013.6 1016.7 0.0
30/09:30am 5.2 -9.4 1.0 74 1.8 WNW 67 80 36 43 1014.2 1017.2 0.0
30/09:00am 5.0 -8.5 0.8 74 1.8 WNW 61 78 33 42 1014.3 1017.4 0.0
30/08:30am 4.9 -9.7 0.7 74 1.8 WNW 67 85 36 46 1014.6 1017.6 0.0
30/08:23am 4.9 -9.7 0.7 74 1.8 WNW 67 85 36 46 1014.4 1017.5 0.0
30/08:00am 4.7 -10.3 0.5 74 1.8 WNW 69 80 37 43 1014.4 1017.5 0.0
30/07:30am 4.7 -10.0 0.3 73 1.8 WNW 67 83 36 45 1014.1 1017.1 0.0
30/07:20am 4.7 -10.0 0.3 73 1.8 WNW 67 87 36 47 1014.1 1017.1 0.0
30/07:00am 4.5 -9.8 0.3 74 1.8 WNW 65 80 35 43 1014.0 1017.0 0.0
30/06:34am 4.4 -7.8 0.0 73 1.8 W 54 76 29 41 1013.9 1016.9 0.0
30/06:30am 4.3 -7.2 -0.1 73 1.8 W 50 65 27 35 1014.0 1017.0 0.0
30/06:00am 4.2 -7.3 -0.2 73 1.8 W 50 72 27 39 1014.0 1017.0 0.0
30/05:44am 4.2 -7.7 -0.4 72 1.9 WNW 52 70 28 38 1013.9 1016.9 0.0
30/05:30am 4.5 -7.8 -0.3 71 2.0 WNW 54 69 29 37 1014.0 1017.0 0.0
30/05:00am 4.7 -5.7 -0.3 70 2.1 W 44 61 24 33 1013.9 1016.9 0.0
30/04:30am 4.7 -6.1 -0.5 69 2.1 W 46 65 25 35 1013.8 1016.8 0.0
30/04:00am 5.0 -5.4 -0.4 68 2.2 W 44 69 24 37 1014.1 1017.1 0.0
30/03:30am 4.8 -6.8 -1.0 66 2.4 W 50 72 27 39 1014.4 1017.5 0.0
30/03:00am 4.9 -7.6 -1.5 63 2.6 W 54 72 29 39 1014.7 1017.7 0.0
30/02:30am 5.0 -8.8 -1.9 61 2.7 W 61 85 33 46 1014.7 1017.7 0.0
30/02:00am 4.9 -9.4 -2.7 58 3.0 W 63 82 34 44 1014.7 1017.7 0.0
30/01:45am 4.8 -11.2 -2.5 59 2.9 WNW 72 91 39 49 1014.7 1017.7 0.0
30/01:30am 4.8 -10.7 -1.6 63 2.6 WNW 70 87 38 47 1014.7 1017.7 0.0
30/01:20am 4.7 -10.8 -1.3 65 2.4 WNW 70 89 38 48 1014.9 1018.0 0.0
30/01:00am 4.9 -11.0 -2.0 61 2.7 WNW 72 87 39 47 1015.1 1018.2 0.0
30/12:30am 5.1 -9.5 -2.2 59 2.9 WNW 65 78 35 42 1015.1 1018.2 0.0
30/12:25am 5.3 -9.3 -2.3 58 3.0 WNW 65 83 35 45 1015.2 1018.3 0.0
30/12:00am 5.2 -8.7 -2.8 56 3.1 WNW 61 74 33 40 1015.9 1019.0 0.0
 
Date/Time
EST
Tmp

°C
App
Tmp
°C
Dew
Point
°C
Rel
Hum
%
Delta-T

°C
Wind Press
QNH
hPa
Press
MSL
hPa
Rain
since
9 am
mm
Dir
 
Spd
km/h
Gust
km/h
Spd
kts
Gust
kts
29/11:30pm 5.6 -9.7 -8.3 36 4.8 WNW 65 80 35 43 1016.3 1019.4 0.0
29/11:00pm 4.6 -9.9 -7.8 40 4.2 WNW 61 74 33 40 1016.6 1019.7 0.0
29/10:30pm 3.5 -9.3 -0.9 73 1.8 WNW 56 63 30 34 1016.7 1019.8 0.0
29/10:00pm 4.4 -8.5 -2.4 61 2.7 WNW 56 61 30 33 1016.8 1020.0 0.0
29/09:30pm 5.8 -6.5 -11.3 28 5.4 WNW 48 56 26 30 1016.8 1020.0 0.0
29/09:00pm 7.7 -4.7 -20.9 11 7.5 WNW 46 56 25 30 1017.0 1020.1 0.0
29/08:30pm 7.3 -5.8 -20.2 12 7.2 WNW 50 56 27 30 1017.1 1020.2 0.0
29/08:00pm 7.2 -5.3 -16.2 17 6.7 WNW 48 56 26 30 1017.3 1020.4 0.0
29/07:30pm 6.8 -5.3 -14.6 20 6.4 WNW 46 56 25 30 1017.1 1020.2 0.0
29/07:00pm 5.2 -8.3 -7.3 40 4.4 WNW 56 61 30 33 1016.7 1019.8 0.0
29/06:30pm 5.6 -7.7 -5.4 45 4.0 WNW 56 65 30 35 1016.7 1019.8 0.0
29/06:00pm 5.9 -7.6 -5.4 44 4.2 WNW 57 65 31 35 1016.3 1019.4 0.0
29/05:30pm 6.1 -6.9 -1.5 58 3.1 WNW 57 72 31 39 1015.8 1018.9 0.0
29/05:00pm 6.5 -6.4 -0.7 60 3.0 WNW 57 67 31 36 1015.6 1018.7 0.0
29/04:30pm 7.2 -5.0 -2.5 50 3.9 WNW 52 69 28 37 1015.5 1018.5 0.0
29/04:00pm 8.0 -4.0 -4.4 41 4.8 WNW 50 57 27 31 1015.4 1018.4 0.0
29/03:30pm 7.5 -4.5 -0.7 56 3.5 WNW 52 63 28 34 1015.0 1018.1 0.0
29/03:00pm 7.7 -4.5 0.0 58 3.3 WNW 54 65 29 35 1015.0 1018.1 0.0
29/02:30pm 8.1 -4.3 -1.4 51 4.0 WNW 54 69 29 37 1015.0 1018.1 0.0
29/02:00pm 8.0 -5.0 -1.5 51 3.9 WNW 57 69 31 37 1015.4 1018.4 0.0
29/01:30pm 8.2 -5.2 -6.3 35 5.4 WNW 56 70 30 38 1015.2 1018.3 0.0
29/01:00pm 8.2 -4.8 -3.0 45 4.5 WNW 56 65 30 35 1015.4 1018.4 0.0
29/12:30pm 7.8 -5.5 -3.4 45 4.4 WNW 57 67 31 36 1015.1 1018.2 0.0
29/12:00pm 7.5 -6.2 -3.6 45 4.4 WNW 59 69 32 37 1015.2 1018.3 0.0
29/11:30am 7.8 -5.7 -6.0 37 5.1 WNW 57 67 31 36 1015.4 1018.4 0.0
29/11:00am 7.6 -6.1 -4.2 43 4.6 WNW 59 70 32 38 1015.5 1018.5 0.0
29/10:30am 7.6 -6.1 -7.2 34 5.3 WNW 57 69 31 37 1015.6 1018.7 0.0
29/10:07am 7.3 -6.1 -6.8 36 5.1 WNW 56 74 30 40 1015.8 1018.9 0.0
29/10:00am 7.6 -5.5 -7.2 34 5.3 WNW 54 65 29 35 1015.8 1018.9 0.0
29/09:30am 7.5 -5.7 -8.5 31 5.6 WNW 54 67 29 36 1015.7 1018.8 0.0
29/09:00am 7.5 -6.0 -8.1 32 5.5 WNW 56 69 30 37 1015.7 1018.8 0.0
29/08:30am 7.1 -6.6 -7.7 34 5.2 WNW 57 69 31 37 1015.6 1018.7 0.0
29/08:00am 6.4 -7.5 -5.6 42 4.4 WNW 59 69 32 37 1015.5 1018.5 0.0
29/07:30am 4.1 -8.5 0.3 76 1.6 WNW 56 65 30 35 1015.7 1018.8 0.0
29/07:00am 3.8 -8.7 0.5 79 1.4 WNW 56 69 30 37 1015.9 1019.0 0.0
29/06:30am 3.6 -7.1 0.3 79 1.4 WNW 46 59 25 32 1016.0 1019.1 0.0
29/06:00am 3.4 -8.0 0.3 80 1.3 NW 50 65 27 35 1015.7 1018.8 0.0
29/05:30am 4.0 -8.5 0.5 78 1.5 NW 56 69 30 37 1015.6 1018.7 0.0
29/05:00am 4.0 -8.2 0.5 78 1.5 WNW 54 72 29 39 1015.1 1018.2 0.0
29/04:30am 4.6 -8.5 0.6 75 1.7 WNW 59 82 32 44 1014.8 1017.8 0.0
29/04:00am 4.4 -9.5 0.6 76 1.6 WNW 63 82 34 44 1014.3 1017.4 0.0
29/03:43am 4.6 -8.9 0.6 75 1.7 WNW 61 80 33 43 1014.3 1017.4 0.0
29/03:30am 4.8 -8.3 0.6 74 1.8 WNW 59 74 32 40 1014.4 1017.5 0.0
29/03:00am 5.0 -9.2 0.8 74 1.8 WNW 65 87 35 47 1014.3 1017.4 0.0
29/02:30am 4.9 -9.7 0.9 75 1.7 WNW 67 85 36 46 1014.6 1017.6 0.0
29/02:00am 4.4 -9.8 1.1 79 1.4 WNW 65 83 35 45 1014.8 1017.8 0.0
29/01:44am 4.7 -9.1 1.2 78 1.5 WNW 63 85 34 46 1015.0 1018.1 0.0
29/01:30am 4.9 -9.2 1.6 79 1.4 WNW 65 82 35 44 1015.1 1018.2 0.0
29/01:00am 5.0 -8.4 1.3 77 1.6 WNW 61 83 33 45 1015.4 1018.4 0.0
29/12:30am 4.9 -8.9 1.0 76 1.7 WNW 63 83 34 45 1015.5 1018.5 0.0
29/12:11am 5.2 -9.3 1.1 75 1.8 WNW 67 85 36 46 1015.7 1018.8 0.0
29/12:00am 5.7 -8.8 1.4 74 1.9 WNW 67 82 36 44 1015.8 1018.9 0.0
 
Date/Time
EST
Tmp

°C
App
Tmp
°C
Dew
Point
°C
Rel
Hum
%
Delta-T

°C
Wind Press
QNH
hPa
Press
MSL
hPa
Rain
since
9 am
mm
Dir
 
Spd
km/h
Gust
km/h
Spd
kts
Gust
kts
28/11:30pm 5.3 -8.9 1.2 75 1.8 WNW 65 85 35 46 1016.0 1019.1 0.0
28/11:00pm 5.7 -10.2 1.1 72 2.0 WNW 74 100 40 54 1016.3 1019.4 0.0
28/10:51pm 5.7 -9.8 1.2 73 1.9 WNW 72 91 39 49 1016.2 1019.3 0.0
28/10:30pm 5.9 -10.3 1.2 72 2.0 WNW 76 93 41 50 1015.8 1018.9 0.0
28/10:18pm 5.9 -10.3 1.4 73 2.0 WNW 76 98 41 53 1016.0 1019.1 0.0
28/10:00pm 6.0 -9.4 1.7 74 1.9 WNW 72 87 39 47 1016.4 1019.5 0.0
28/09:37pm 5.9 -9.5 2.0 76 1.7 WNW 72 91 39 49 1016.6 1019.7 0.0
28/09:30pm 5.9 -9.4 2.5 79 1.5 WNW 72 87 39 47 1016.6 1019.7 0.0
28/09:00pm 5.7 -8.8 3.5 86 1.0 WNW 69 83 37 45 1016.7 1019.8 0.0
28/08:30pm 5.6 -9.0 3.9 89 0.8 WNW 70 82 38 44 1016.8 1020.0 0.0
28/08:00pm 5.2 -9.1 4.5 95 0.3 WNW 69 76 37 41 1016.8 1020.0 0.0
28/07:30pm 5.4 -9.9 4.5 94 0.4 WNW 74 85 40 46 1016.0 1019.1 0.0
28/07:00pm 5.4 -10.7 4.2 92 0.6 WNW 78 89 42 48 1015.7 1018.8 0.0
28/06:30pm 5.6 -11.0 3.8 88 0.8 WNW 80 98 43 53 1015.9 1019.0 0.0

Latest Capital City Observations: Canberra | Sydney | Melbourne | Brisbane | Adelaide | Perth | Hobart | Darwin

Other Formats:

Comma delimited format used in spreadsheet applications
http://www.bom.gov.au/fwo/IDN60903/IDN60903.95909.axf

JavaScript Object Notation format (JSON) in row-major order
http://www.bom.gov.au/fwo/IDN60903/IDN60903.95909.json